createdAt,value
2019-03-05T00:01:06.872Z,94664.12
2019-03-05T00:03:33.046Z,94660.56
2019-03-05T00:05:59.184Z,94655.67
2019-03-05T00:08:25.387Z,94666.41
2019-03-05T00:10:51.644Z,94666.94
2019-03-05T00:13:18.181Z,94669.19
2019-03-05T00:15:45.665Z,94661.36
2019-03-05T00:18:12.551Z,94668.09
2019-03-05T00:20:38.713Z,94664.95
2019-03-05T00:23:04.799Z,94665.63
2019-03-05T00:25:33.164Z,94672.02
2019-03-05T00:28:05.722Z,94664.33
2019-03-05T00:30:38.473Z,94665.34
2019-03-05T00:33:26.347Z,94671.18
2019-03-05T00:36:06.351Z,94671.00
2019-03-05T00:38:53.776Z,94674.70
2019-03-05T00:41:46.498Z,94676.16
2019-03-05T00:44:39.090Z,94671.44
2019-03-05T00:47:15.119Z,94693.77
2019-03-05T00:50:15.576Z,94698.98
2019-03-05T00:52:51.567Z,94674.23
2019-03-05T00:55:42.602Z,94686.95
2019-03-05T00:58:22.258Z,94688.55
2019-03-05T01:01:12.213Z,94687.53
2019-03-05T01:03:54.556Z,94685.44
2019-03-05T01:06:25.101Z,94675.20
2019-03-05T01:08:54.617Z,94674.70
2019-03-05T01:11:21.220Z,94681.37
2019-03-05T01:13:47.554Z,94682.68
2019-03-05T01:16:17.969Z,94680.14
2019-03-05T01:18:44.191Z,94679.70
2019-03-05T01:21:10.508Z,94678.89
2019-03-05T01:23:39.596Z,94668.52
2019-03-05T01:26:05.745Z,94658.11
2019-03-05T01:28:31.916Z,94656.36
2019-03-05T01:31:15.259Z,94662.77
2019-03-05T01:33:46.336Z,94667.59
2019-03-05T01:36:20.175Z,94673.41
2019-03-05T01:38:56.056Z,94663.16
2019-03-05T01:41:22.283Z,94657.64
2019-03-05T01:43:48.512Z,94661.16
2019-03-05T01:46:14.697Z,94654.19
2019-03-05T01:48:41.880Z,94655.52
2019-03-05T01:51:08.359Z,94659.98
2019-03-05T01:53:35.554Z,94663.95
2019-03-05T01:56:01.743Z,94678.67
2019-03-05T01:58:27.837Z,94681.02
2019-03-05T02:00:54.225Z,94685.11
2019-03-05T02:03:20.500Z,94686.27
2019-03-05T02:05:46.968Z,94682.15
2019-03-05T02:08:13.095Z,94684.59
2019-03-05T02:10:39.612Z,94690.34
2019-03-05T02:13:06.744Z,94691.30
2019-03-05T02:15:32.838Z,94702.55
2019-03-05T02:18:00.648Z,94688.64
2019-03-05T02:20:26.757Z,94695.16
2019-03-05T02:22:56.489Z,94685.33
2019-03-05T02:25:29.351Z,94680.26
2019-03-05T02:27:59.302Z,94694.18
2019-03-05T02:30:46.775Z,94689.73
2019-03-05T02:33:50.464Z,94683.88
2019-03-05T02:36:23.115Z,94690.23
2019-03-05T02:39:05.322Z,94692.49
2019-03-05T02:41:56.540Z,94678.17
2019-03-05T02:44:56.975Z,94682.56
2019-03-05T02:47:45.290Z,94686.42
2019-03-05T02:50:18.035Z,94673.96
2019-03-05T02:53:01.020Z,94680.63
2019-03-05T02:55:31.020Z,94692.40
2019-03-05T02:58:00.668Z,94689.77
2019-03-05T03:00:29.002Z,94688.28
2019-03-05T03:02:59.636Z,94697.91
2019-03-05T03:05:30.751Z,94706.02
2019-03-05T03:07:56.772Z,94704.20
2019-03-05T03:10:23.095Z,94705.87
2019-03-05T03:12:52.188Z,94702.30
2019-03-05T03:15:18.484Z,94711.97
2019-03-05T03:17:45.130Z,94710.59
2019-03-05T03:20:13.137Z,94707.07
2019-03-05T03:22:39.431Z,94698.40
2019-03-05T03:25:11.210Z,94710.14
2019-03-05T03:27:37.510Z,94712.53
2019-03-05T03:30:07.541Z,94722.95
2019-03-05T03:32:33.787Z,94734.66
2019-03-05T03:34:59.985Z,94730.64
2019-03-05T03:37:26.089Z,94738.50
2019-03-05T03:39:52.367Z,94742.09
2019-03-05T03:42:18.447Z,94745.21
2019-03-05T03:44:44.751Z,94731.29
2019-03-05T03:47:10.850Z,94734.20
2019-03-05T03:49:37.012Z,94733.95
2019-03-05T03:52:04.873Z,94735.55
2019-03-05T03:54:31.111Z,94745.08
2019-03-05T03:56:57.170Z,94741.16
2019-03-05T03:59:23.468Z,94743.80
2019-03-05T04:01:49.726Z,94749.98
2019-03-05T04:04:16.057Z,94737.36
2019-03-05T04:06:42.315Z,94735.67
2019-03-05T04:09:09.507Z,94745.28
2019-03-05T04:11:35.721Z,94739.73
2019-03-05T04:14:01.806Z,94741.63
2019-03-05T04:16:27.993Z,94744.72
2019-03-05T04:18:54.081Z,94747.98
2019-03-05T04:21:21.923Z,94746.03
2019-03-05T04:23:48.019Z,94748.78
2019-03-05T04:26:14.257Z,94749.73
2019-03-05T04:28:40.340Z,94750.17
2019-03-05T04:31:06.582Z,94754.95
2019-03-05T04:33:32.722Z,94749.77
2019-03-05T04:35:58.911Z,94752.11
2019-03-05T04:38:25.047Z,94746.66
2019-03-05T04:40:51.422Z,94748.38
2019-03-05T04:43:17.534Z,94750.72
2019-03-05T04:46:02.504Z,94754.30
2019-03-05T04:48:28.854Z,94743.05
2019-03-05T04:50:58.316Z,94747.33
2019-03-05T04:53:24.403Z,94747.98
2019-03-05T04:55:51.860Z,94748.13
2019-03-05T04:58:18.895Z,94753.05
2019-03-05T05:00:45.229Z,94752.55
2019-03-05T05:03:11.309Z,94756.27
2019-03-05T05:05:37.610Z,94751.34
2019-03-05T05:08:03.689Z,94751.19
2019-03-05T05:10:29.897Z,94757.92
2019-03-05T05:12:56.806Z,94754.78
2019-03-05T05:15:31.226Z,94756.56
2019-03-05T05:17:57.511Z,94766.30
2019-03-05T05:20:24.117Z,94766.45
2019-03-05T05:22:51.603Z,94761.73
2019-03-05T05:25:20.630Z,94768.70
2019-03-05T05:27:46.758Z,94765.27
2019-03-05T05:30:33.542Z,94757.75
2019-03-05T05:32:59.894Z,94760.22
2019-03-05T05:35:26.488Z,94769.62
2019-03-05T05:37:52.682Z,94766.00
2019-03-05T05:40:33.676Z,94759.66
2019-03-05T05:43:00.062Z,94766.24
2019-03-05T05:45:36.493Z,94759.89
2019-03-05T05:48:02.813Z,94753.18
2019-03-05T05:50:28.997Z,94755.29
2019-03-05T05:52:55.185Z,94759.77
2019-03-05T05:55:21.419Z,94762.23
2019-03-05T05:57:49.856Z,94751.91
2019-03-05T06:00:16.600Z,94771.17
2019-03-05T06:02:43.945Z,94767.55
2019-03-05T06:05:10.687Z,94765.11
2019-03-05T06:07:36.870Z,94770.43
2019-03-05T06:10:06.604Z,94762.50
2019-03-05T06:12:32.960Z,94765.94
2019-03-05T06:14:59.058Z,94754.51
2019-03-05T06:17:25.271Z,94758.94
2019-03-05T06:19:52.897Z,94764.89
2019-03-05T06:22:19.104Z,94763.91
2019-03-05T06:24:45.194Z,94758.53
2019-03-05T06:27:11.441Z,94752.68
2019-03-05T06:29:38.676Z,94758.77
2019-03-05T06:32:04.952Z,94761.70
2019-03-05T06:34:31.104Z,94757.95
2019-03-05T06:36:57.331Z,94751.47
2019-03-05T06:39:24.686Z,94766.34
2019-03-05T06:41:50.987Z,94768.34
2019-03-05T06:44:17.346Z,94764.41
2019-03-05T06:46:43.574Z,94778.97
2019-03-05T06:49:09.775Z,94762.80
2019-03-05T06:51:36.153Z,94774.89
2019-03-05T06:54:03.835Z,94778.52
2019-03-05T06:56:29.946Z,94770.67
2019-03-05T06:58:56.319Z,94770.04
2019-03-05T07:01:24.479Z,94783.11
2019-03-05T07:03:51.367Z,94812.56
2019-03-05T07:06:46.519Z,94811.55
2019-03-05T07:09:16.811Z,94813.16
2019-03-05T07:11:49.746Z,94817.00
2019-03-05T07:14:31.003Z,94821.53
2019-03-05T07:17:15.791Z,94829.91
2019-03-05T07:19:57.985Z,94843.34
2019-03-05T07:22:29.817Z,94850.71
2019-03-05T07:24:56.023Z,94843.11
2019-03-05T07:27:25.456Z,94849.56
2019-03-05T07:29:53.472Z,94847.22
2019-03-05T07:32:19.559Z,94847.77
2019-03-05T07:34:49.488Z,94858.43
2019-03-05T07:37:15.826Z,94844.47
2019-03-05T07:39:42.144Z,94843.20
2019-03-05T07:42:08.295Z,94850.27
2019-03-05T07:44:34.503Z,94837.73
2019-03-05T07:47:01.037Z,94854.92
2019-03-05T07:49:27.233Z,94854.23
2019-03-05T07:51:53.464Z,94852.16
2019-03-05T07:54:20.067Z,94853.36
2019-03-05T07:56:46.283Z,94851.00
2019-03-05T07:59:12.477Z,94863.95
2019-03-05T08:01:38.720Z,94863.66
2019-03-05T08:04:05.049Z,94862.09
2019-03-05T08:06:31.325Z,94874.48
2019-03-05T08:09:27.210Z,94872.59
2019-03-05T08:12:00.304Z,94878.68
2019-03-05T08:14:39.537Z,94862.91
2019-03-05T08:17:05.869Z,94867.39
2019-03-05T08:19:32.084Z,94882.33
2019-03-05T08:22:01.235Z,94892.67
2019-03-05T08:24:27.548Z,94884.73
2019-03-05T08:26:53.647Z,94883.92
2019-03-05T08:29:19.869Z,94884.91
2019-03-05T08:31:46.027Z,94892.13
2019-03-05T08:34:12.223Z,94898.62
2019-03-05T08:36:38.341Z,94890.34
2019-03-05T08:39:06.117Z,94901.52
2019-03-05T08:41:32.702Z,94905.63
2019-03-05T08:43:59.012Z,94904.83
2019-03-05T08:46:25.213Z,94908.08
2019-03-05T08:48:51.448Z,94905.86
2019-03-05T08:51:18.751Z,94927.89
2019-03-05T08:53:49.492Z,94914.66
2019-03-05T08:56:13.126Z,94912.74
2019-03-05T08:58:39.440Z,94918.98
2019-03-05T09:01:06.300Z,94926.74
2019-03-05T09:03:32.507Z,94928.59
2019-03-05T09:05:58.681Z,94933.66
2019-03-05T09:08:26.925Z,94939.86
2019-03-05T09:10:53.606Z,94938.75
2019-03-05T09:13:20.002Z,94941.62
2019-03-05T09:15:46.223Z,94943.53
2019-03-05T09:18:14.442Z,94945.88
2019-03-05T09:20:41.038Z,94949.61
2019-03-05T09:23:07.207Z,94965.16
2019-03-05T09:25:33.564Z,94952.84
2019-03-05T09:27:59.711Z,94948.28
2019-03-05T09:30:26.124Z,94952.90
2019-03-05T09:32:52.236Z,94941.27
2019-03-05T09:35:18.996Z,94954.22
2019-03-05T09:37:45.348Z,94957.63
2019-03-05T09:40:20.184Z,94953.22
2019-03-05T09:42:46.719Z,94961.08
2019-03-05T09:45:15.240Z,94945.92
2019-03-05T09:47:41.550Z,94953.33
2019-03-05T09:50:10.787Z,94950.41
2019-03-05T09:52:37.071Z,94938.61
2019-03-05T09:55:06.604Z,94942.23
2019-03-05T09:57:33.822Z,94941.77
2019-03-05T10:00:00.031Z,94940.63
2019-03-05T10:02:26.306Z,94944.58
2019-03-05T10:04:52.658Z,94945.89
2019-03-05T10:07:19.473Z,94936.20
2019-03-05T10:09:45.637Z,94934.42
2019-03-05T10:12:13.081Z,94935.92
2019-03-05T10:14:39.331Z,94940.17
2019-03-05T10:17:05.660Z,94941.95
2019-03-05T10:19:31.829Z,94936.87
2019-03-05T10:21:57.960Z,94935.41
2019-03-05T10:24:24.185Z,94932.97
2019-03-05T10:26:52.453Z,94938.70
2019-03-05T10:29:18.893Z,94942.66
2019-03-05T10:31:45.250Z,94930.17
2019-03-05T10:34:11.487Z,94935.57
2019-03-05T10:36:37.812Z,94944.84
2019-03-05T10:39:08.118Z,94942.70
2019-03-05T10:41:34.471Z,94929.72
2019-03-05T10:44:01.999Z,94929.75
2019-03-05T10:46:28.313Z,94940.30
2019-03-05T10:48:55.942Z,94930.47
2019-03-05T10:51:22.102Z,94934.44
2019-03-05T10:53:49.910Z,94929.66
2019-03-05T10:56:16.404Z,94927.88
2019-03-05T10:58:42.853Z,94926.23
2019-03-05T11:01:09.478Z,94930.98
2019-03-05T11:03:36.312Z,94924.91
2019-03-05T11:06:04.761Z,94924.42
2019-03-05T11:08:31.097Z,94925.89
2019-03-05T11:10:59.411Z,94925.42
2019-03-05T11:13:25.747Z,94922.97
2019-03-05T11:15:56.365Z,94917.05
2019-03-05T11:18:29.297Z,94912.46
2019-03-05T11:20:51.118Z,94917.02
2019-03-05T11:23:17.243Z,94900.45
2019-03-05T11:25:44.623Z,94909.97
2019-03-05T11:28:10.968Z,94905.05
2019-03-05T11:30:37.575Z,94911.77
2019-03-05T11:33:03.779Z,94910.77
2019-03-05T11:35:32.403Z,94914.55
2019-03-05T11:37:58.800Z,94915.56
2019-03-05T11:40:25.338Z,94924.23
2019-03-05T11:42:51.654Z,94916.41
2019-03-05T11:45:24.881Z,94914.30
2019-03-05T11:47:53.994Z,94927.73
2019-03-05T11:50:21.057Z,94921.96
2019-03-05T11:52:47.599Z,94930.27
2019-03-05T11:55:20.922Z,94938.07
2019-03-05T11:57:47.124Z,94951.64
2019-03-05T12:00:20.862Z,94947.02
2019-03-05T12:02:47.488Z,94941.78
2019-03-05T12:05:13.855Z,94953.78
2019-03-05T12:07:40.089Z,94951.53
2019-03-05T12:10:12.965Z,94959.95
2019-03-05T12:12:40.333Z,94954.47
2019-03-05T12:15:10.307Z,94948.92
2019-03-05T12:17:37.850Z,94949.23
2019-03-05T12:20:09.438Z,94957.11
2019-03-05T12:22:35.701Z,94946.98
2019-03-05T12:25:03.612Z,94945.32
2019-03-05T12:27:30.184Z,94945.91
2019-03-05T12:29:56.406Z,94946.15
2019-03-05T12:32:22.517Z,94957.22
2019-03-05T12:34:48.751Z,94963.59
2019-03-05T12:37:14.936Z,94957.35
2019-03-05T12:39:44.028Z,94959.73
2019-03-05T12:42:10.130Z,94953.53
2019-03-05T12:44:37.310Z,94946.33
2019-03-05T12:47:03.608Z,94963.34
2019-03-05T12:49:30.158Z,94953.41
2019-03-05T12:51:56.254Z,94957.67
2019-03-05T12:54:22.569Z,94953.28
2019-03-05T12:56:48.820Z,94956.05
2019-03-05T12:59:15.033Z,94958.98
2019-03-05T13:01:41.393Z,94961.98
2019-03-05T13:04:08.649Z,94954.30
2019-03-05T13:06:35.160Z,94956.97
2019-03-05T13:09:01.399Z,94963.16
2019-03-05T13:11:29.473Z,94964.85
2019-03-05T13:14:05.967Z,94968.78
2019-03-05T13:16:23.881Z,94969.78
2019-03-05T13:18:50.207Z,94959.63
2019-03-05T13:21:18.333Z,94971.92
2019-03-05T13:23:44.393Z,94979.42
2019-03-05T13:26:11.220Z,94972.25
2019-03-05T13:28:40.518Z,94970.06
2019-03-05T13:31:06.344Z,94975.55
2019-03-05T13:33:33.508Z,94975.67
2019-03-05T13:36:00.788Z,94983.14
2019-03-05T13:38:26.893Z,94983.34
2019-03-05T13:40:53.028Z,94984.36
2019-03-05T13:43:21.703Z,94976.94
2019-03-05T13:45:49.589Z,94983.73
2019-03-05T13:48:31.895Z,94987.22
2019-03-05T13:51:23.096Z,94987.27
2019-03-05T13:54:21.147Z,94993.59
2019-03-05T13:57:08.277Z,94986.28
2019-03-05T13:59:41.285Z,94985.15
2019-03-05T14:02:07.955Z,94992.23
2019-03-05T14:04:37.943Z,94994.95
2019-03-05T14:07:17.067Z,95002.09
2019-03-05T14:09:43.063Z,94999.65
2019-03-05T14:12:09.503Z,94995.04
2019-03-05T14:14:35.904Z,95001.73
2019-03-05T14:17:09.912Z,95010.73
2019-03-05T14:19:36.377Z,95013.81
2019-03-05T14:22:02.654Z,95018.51
2019-03-05T14:24:28.988Z,95023.35
2019-03-05T14:26:56.248Z,95018.25
2019-03-05T14:29:22.505Z,95020.05
2019-03-05T14:31:48.658Z,95017.27
2019-03-05T14:34:14.983Z,95025.67
2019-03-05T14:36:41.230Z,95024.40
2019-03-05T14:39:24.363Z,95027.87
2019-03-05T14:41:56.524Z,95035.53
2019-03-05T14:44:23.045Z,95029.99
2019-03-05T14:46:56.095Z,95037.83
2019-03-05T14:49:22.504Z,95034.05
2019-03-05T14:51:48.885Z,95038.39
2019-03-05T14:54:15.047Z,95043.28
2019-03-05T14:56:41.161Z,95045.90
2019-03-05T14:59:09.163Z,95057.70
2019-03-05T15:01:35.371Z,95060.78
2019-03-05T15:04:01.661Z,95060.93
2019-03-05T15:06:27.730Z,95066.64
2019-03-05T15:08:53.979Z,95061.69
2019-03-05T15:11:20.192Z,95065.46
2019-03-05T15:13:46.442Z,95066.95
2019-03-05T15:16:12.907Z,95070.84
2019-03-05T15:18:39.091Z,95072.84
2019-03-05T15:21:05.371Z,95076.36
2019-03-05T15:23:31.638Z,95068.80
2019-03-05T15:25:57.838Z,95076.98
2019-03-05T15:28:24.109Z,95077.13
2019-03-05T15:30:50.247Z,95066.27
2019-03-05T15:33:16.391Z,95075.80
2019-03-05T15:35:42.587Z,95071.21
2019-03-05T15:38:08.883Z,95078.62
2019-03-05T15:40:35.177Z,95076.36
2019-03-05T15:43:01.452Z,95079.03
2019-03-05T15:45:27.685Z,95077.39
2019-03-05T15:47:53.828Z,95082.51
2019-03-05T15:50:29.176Z,95072.01
2019-03-05T15:52:55.423Z,95076.20
2019-03-05T15:55:23.467Z,95087.84
2019-03-05T15:57:49.628Z,95077.43
2019-03-05T16:00:18.428Z,95074.42
2019-03-05T16:02:44.634Z,95087.09
2019-03-05T16:05:12.435Z,95082.22
2019-03-05T16:07:38.798Z,95082.16
2019-03-05T16:10:13.263Z,95090.85
2019-03-05T16:12:42.605Z,95093.19
2019-03-05T16:15:12.885Z,95092.27
2019-03-05T16:17:39.700Z,95094.64
2019-03-05T16:20:14.039Z,95090.67
2019-03-05T16:22:41.298Z,95094.60
2019-03-05T16:25:13.761Z,95096.38
2019-03-05T16:27:41.596Z,95108.51
2019-03-05T16:30:13.662Z,95119.59
2019-03-05T16:32:47.749Z,95126.61
2019-03-05T16:35:28.978Z,95122.97
2019-03-05T16:38:09.115Z,95140.02
2019-03-05T16:40:37.366Z,95143.55
2019-03-05T16:43:13.871Z,95146.68
2019-03-05T16:45:42.060Z,95158.53
2019-03-05T16:48:13.211Z,95166.38
2019-03-05T16:51:00.882Z,95167.35
2019-03-05T16:53:31.354Z,95163.77
2019-03-05T16:56:00.584Z,95162.73
2019-03-05T17:02:11.978Z,95177.66
2019-03-05T17:04:43.007Z,95185.30
2019-03-05T17:07:28.454Z,95189.23
2019-03-05T17:10:00.491Z,95185.50
2019-03-05T17:12:29.254Z,95196.16
2019-03-05T17:14:55.716Z,95204.40
2019-03-05T17:17:22.036Z,95207.08
2019-03-05T17:19:48.793Z,95212.10
2019-03-05T17:22:15.128Z,95217.09
2019-03-05T17:24:41.365Z,95223.55
2019-03-05T17:27:09.338Z,95222.58
2019-03-05T17:29:36.295Z,95234.46
2019-03-05T17:32:03.661Z,95235.91
2019-03-05T17:34:30.377Z,95244.97
2019-03-05T17:36:56.874Z,95246.61
2019-03-05T17:39:24.814Z,95249.22
2019-03-05T17:41:51.214Z,95256.72
2019-03-05T17:44:17.611Z,95262.91
2019-03-05T17:46:45.266Z,95267.02
2019-03-05T17:49:13.592Z,95270.23
2019-03-05T17:51:43.141Z,95264.55
2019-03-05T17:54:10.342Z,95276.42
2019-03-05T17:56:36.855Z,95285.09
2019-03-05T17:59:03.421Z,95285.90
2019-03-05T18:01:29.764Z,95285.22
2019-03-05T18:03:56.162Z,95291.05
2019-03-05T18:06:23.022Z,95297.44
2019-03-05T18:08:49.439Z,95297.23
2019-03-05T18:11:15.704Z,95303.05
2019-03-05T18:13:42.385Z,95297.97
2019-03-05T18:16:08.662Z,95294.75
2019-03-05T18:18:34.953Z,95303.89
2019-03-05T18:21:03.351Z,95305.09
2019-03-05T18:23:30.712Z,95308.67
2019-03-05T18:25:57.423Z,95311.54
2019-03-05T18:28:24.235Z,95323.36
2019-03-05T18:30:50.619Z,95328.31
2019-03-05T18:33:17.846Z,95330.13
2019-03-05T18:35:44.095Z,95335.21
2019-03-05T18:38:10.549Z,95345.98
2019-03-05T18:40:37.156Z,95346.13
2019-03-05T18:43:03.873Z,95346.84
2019-03-05T18:45:31.413Z,95355.17
2019-03-05T18:47:57.662Z,95365.38
2019-03-05T18:50:23.868Z,95364.07
2019-03-05T18:52:58.957Z,95369.53
2019-03-05T18:55:25.775Z,95376.31
2019-03-05T18:57:53.187Z,95374.43
2019-03-05T19:00:25.902Z,95378.34
2019-03-05T19:02:54.482Z,95388.08
2019-03-05T19:05:22.127Z,95395.35
2019-03-05T19:07:49.737Z,95402.68
2019-03-05T19:10:18.281Z,95401.50
2019-03-05T19:12:44.720Z,95405.91
2019-03-05T19:15:13.763Z,95411.47
2019-03-05T19:17:42.763Z,95420.44
2019-03-05T19:20:11.933Z,95426.45
2019-03-05T19:22:38.080Z,95430.36
2019-03-05T19:25:08.026Z,95443.48
2019-03-05T19:27:44.495Z,95443.95
2019-03-05T19:30:19.558Z,95449.89
2019-03-05T19:32:45.985Z,95458.30
2019-03-05T19:35:13.351Z,95455.20
2019-03-05T19:37:40.222Z,95456.16
2019-03-05T19:40:13.966Z,95461.13
2019-03-05T19:42:40.221Z,95460.87
2019-03-05T19:45:09.445Z,95465.75
2019-03-05T19:47:35.636Z,95471.77
2019-03-05T19:50:02.896Z,95466.55
2019-03-05T19:52:30.232Z,95471.51
2019-03-05T19:54:56.403Z,95473.41
2019-03-05T19:57:24.106Z,95476.28
2019-03-05T19:59:50.328Z,95489.00
2019-03-05T20:02:17.894Z,95487.31
2019-03-05T20:04:44.087Z,95484.88
2019-03-05T20:07:12.054Z,95485.73
2019-03-05T20:09:38.434Z,95481.81
2019-03-05T20:12:04.968Z,95488.80
2019-03-05T20:14:31.869Z,95485.80
2019-03-05T20:16:58.950Z,95498.13
2019-03-05T20:19:25.137Z,95491.95
2019-03-05T20:21:51.390Z,95497.25
2019-03-05T20:24:17.510Z,95484.91
2019-03-05T20:26:43.967Z,95493.79
2019-03-05T20:29:10.534Z,95507.89
2019-03-05T20:31:37.158Z,95509.41
2019-03-05T20:34:03.547Z,95518.64
2019-03-05T20:36:29.813Z,95515.69
2019-03-05T20:38:58.750Z,95523.73
2019-03-05T20:41:25.170Z,95528.36
2019-03-05T20:43:51.614Z,95522.05
2019-03-05T20:46:20.285Z,95521.91
2019-03-05T20:48:46.582Z,95520.22
2019-03-05T20:51:13.481Z,95522.23
2019-03-05T20:53:39.771Z,95522.58
2019-03-05T20:56:06.462Z,95528.98
2019-03-05T20:58:32.609Z,95524.72
2019-03-05T21:00:59.098Z,95528.98
2019-03-05T21:03:25.456Z,95535.17
2019-03-05T21:05:51.686Z,95535.05
2019-03-05T21:08:18.129Z,95535.88
2019-03-05T21:10:44.726Z,95548.69
2019-03-05T21:13:10.972Z,95545.23
2019-03-05T21:15:37.403Z,95549.63
2019-03-05T21:18:06.128Z,95544.27
2019-03-05T21:20:32.317Z,95553.78
2019-03-05T21:22:59.505Z,95553.16
2019-03-05T21:25:26.278Z,95552.69
2019-03-05T21:27:52.483Z,95558.00
2019-03-05T21:30:23.283Z,95560.73
2019-03-05T21:32:49.696Z,95566.22
2019-03-05T21:35:16.071Z,95569.67
2019-03-05T21:37:42.759Z,95571.11
2019-03-05T21:40:24.836Z,95582.03
2019-03-05T21:42:51.321Z,95582.52
2019-03-05T21:45:23.707Z,95582.39
2019-03-05T21:47:52.125Z,95590.11
2019-03-05T21:50:18.794Z,95588.80
2019-03-05T21:52:44.980Z,95592.59
2019-03-05T21:55:15.151Z,95599.34
2019-03-05T21:57:42.786Z,95594.95
2019-03-05T22:00:20.953Z,95607.05
2019-03-05T22:02:47.380Z,95608.02
2019-03-05T22:05:14.025Z,95610.63
2019-03-05T22:07:40.313Z,95614.89
2019-03-05T22:10:10.994Z,95613.12
2019-03-05T22:12:37.497Z,95613.58
2019-03-05T22:15:07.724Z,95610.63
2019-03-05T22:17:34.304Z,95615.98
2019-03-05T22:20:00.510Z,95610.89
2019-03-05T22:22:26.718Z,95611.14
2019-03-05T22:24:52.888Z,95616.37
2019-03-05T22:27:19.020Z,95621.09
2019-03-05T22:29:45.404Z,95622.41
2019-03-05T22:32:11.485Z,95629.39
2019-03-05T22:34:37.674Z,95627.74
2019-03-05T22:37:03.842Z,95628.68
2019-03-05T22:39:30.098Z,95630.36
2019-03-05T22:41:56.241Z,95635.09
2019-03-05T22:44:23.985Z,95632.13
2019-03-05T22:46:50.117Z,95630.83
2019-03-05T22:49:16.352Z,95632.73
2019-03-05T22:51:42.825Z,95643.30
2019-03-05T22:54:09.155Z,95641.78
2019-03-05T22:56:35.293Z,95642.50
2019-03-05T22:59:01.802Z,95640.27
2019-03-05T23:01:33.271Z,95638.66
2019-03-05T23:04:00.453Z,95640.80
2019-03-05T23:06:28.353Z,95647.12
2019-03-05T23:08:55.066Z,95644.72
2019-03-05T23:11:21.462Z,95642.70
2019-03-05T23:13:48.101Z,95643.45
2019-03-05T23:16:14.516Z,95645.26
2019-03-05T23:18:41.155Z,95650.73
2019-03-05T23:21:08.481Z,95649.08
2019-03-05T23:23:34.833Z,95651.31
2019-03-05T23:26:02.613Z,95647.30
2019-03-05T23:28:28.915Z,95657.28
2019-03-05T23:30:55.212Z,95660.27
2019-03-05T23:33:21.450Z,95663.49
2019-03-05T23:35:47.736Z,95660.62
2019-03-05T23:38:13.834Z,95668.70
2019-03-05T23:40:39.998Z,95669.45
2019-03-05T23:43:06.056Z,95669.81
2019-03-05T23:45:33.157Z,95670.05
2019-03-05T23:47:59.285Z,95671.10
2019-03-05T23:50:25.533Z,95673.39
2019-03-05T23:52:51.766Z,95680.84
2019-03-05T23:55:18.177Z,95675.16
2019-03-05T23:57:47.030Z,95676.93
